Time;durP1;ratioP1;P1;durP2;ratioP2;P2;SDS_P1;SDS_P2;PMS_P1;PMS_P2;Temp;Humidity;BMP_temperature;BMP_pressure;BME280_temperature;BME280_humidity;BME280_pressure;Samples;Min_cycle;Max_cycle;Signal;HPM_P1;HPM_P2
2023/06/08 00:01:53;;;;;;;3.70;2.50;;;;;;;;;;5064203;28;20028;-81
2023/06/08 00:04:19;;;;;;;3.50;2.65;;;;;;;;;;5047853;28;20139;-81
2023/06/08 00:06:44;;;;;;;3.72;2.63;;;;;;;;;;5064255;28;20188;-81
2023/06/08 00:09:09;;;;;;;3.53;2.50;;;;;;;;;;5047720;28;20636;-81
2023/06/08 00:11:35;;;;;;;3.30;2.20;;;;;;;;;;5064388;28;20033;-80
2023/06/08 00:14:00;;;;;;;3.55;2.40;;;;;;;;;;5064055;28;20083;-81
2023/06/08 00:16:27;;;;;;;3.30;2.60;;;;;;;;;;5066636;28;20431;-80
2023/06/08 00:18:56;;;;;;;4.25;2.65;;;;;;;;;;5068297;28;20428;-81
2023/06/08 00:21:22;;;;;;;3.72;2.40;;;;;;;;;;5067559;28;20135;-81
2023/06/08 00:23:48;;;;;;;4.10;2.70;;;;;;;;;;5047332;28;20032;-81
2023/06/08 00:26:13;;;;;;;3.72;2.75;;;;;;;;;;5083311;28;20047;-81
2023/06/08 00:28:38;;;;;;;3.47;2.23;;;;;;;;;;5070887;28;20037;-81
2023/06/08 00:31:03;;;;;;;3.07;2.30;;;;;;;;;;5067639;28;20106;-80
2023/06/08 00:33:29;;;;;;;3.90;2.50;;;;;;;;;;5066721;28;20048;-81
2023/06/08 00:35:54;;;;;;;4.00;2.60;;;;;;;;;;5069240;28;20036;-80
2023/06/08 00:38:20;;;;;;;3.63;2.72;;;;;;;;;;5067681;28;20041;-81
2023/06/08 00:40:45;;;;;;;3.17;2.30;;;;;;;;;;5066725;28;20017;-81
2023/06/08 00:43:10;;;;;;;3.57;2.27;;;;;;;;;;5068490;28;20420;-80
2023/06/08 00:45:35;;;;;;;3.83;2.37;;;;;;;;;;5066730;28;20311;-81
2023/06/08 00:48:02;;;;;;;3.40;2.30;;;;;;;;;;5067281;28;20290;-81
2023/06/08 00:50:28;;;;;;;3.25;2.38;;;;;;;;;;5067681;28;20036;-81
2023/06/08 00:52:53;;;;;;;2.58;2.20;;;;;;;;;;5055847;28;20041;-81
2023/06/08 00:55:19;;;;;;;3.83;2.53;;;;;;;;;;5066511;28;20040;-81
2023/06/08 00:57:47;;;;;;;3.88;2.30;;;;;;;;;;5043805;28;20043;-81
2023/06/08 01:00:13;;;;;;;4.60;2.40;;;;;;;;;;5066675;28;20024;-80
2023/06/08 01:02:38;;;;;;;3.38;2.30;;;;;;;;;;5068020;28;20101;-80
2023/06/08 01:05:03;;;;;;;3.58;2.30;;;;;;;;;;5067906;28;20040;-81
2023/06/08 01:07:36;;;;;;;4.35;2.50;;;;;;;;;;5049971;28;20115;-80
2023/06/08 01:10:05;;;;;;;3.83;2.58;;;;;;;;;;5050003;28;20033;-80
2023/06/08 01:12:48;;;;;;;4.73;2.53;;;;;;;;;;5066386;28;20040;-81
2023/06/08 01:15:14;;;;;;;3.20;2.15;;;;;;;;;;5053976;28;20394;-81
2023/06/08 01:17:45;;;;;;;4.32;2.45;;;;;;;;;;5066779;28;20517;-80
2023/06/08 01:20:29;;;;;;;4.05;2.10;;;;;;;;;;5058336;28;20114;-80
2023/06/08 01:23:07;;;;;;;3.65;2.47;;;;;;;;;;5058552;28;20119;-81
2023/06/08 01:25:32;;;;;;;2.92;2.10;;;;;;;;;;5065794;28;20021;-81
2023/06/08 01:28:12;;;;;;;3.15;2.20;;;;;;;;;;5062764;28;20033;-81
2023/06/08 01:30:48;;;;;;;3.55;2.10;;;;;;;;;;5070760;28;20048;-80
2023/06/08 01:33:15;;;;;;;3.20;2.35;;;;;;;;;;5067993;28;20105;-81
2023/06/08 01:35:40;;;;;;;3.17;2.40;;;;;;;;;;5067450;28;20081;-81
2023/06/08 01:38:09;;;;;;;3.20;2.60;;;;;;;;;;5067003;28;20127;-81
2023/06/08 01:40:35;;;;;;;3.43;2.30;;;;;;;;;;5048979;28;20029;-80
2023/06/08 01:43:01;;;;;;;3.25;2.13;;;;;;;;;;5048738;28;20742;-80
2023/06/08 01:45:26;;;;;;;2.90;2.00;;;;;;;;;;5065382;28;20063;-80
2023/06/08 01:47:52;;;;;;;3.25;2.10;;;;;;;;;;5048874;28;20573;-81
2023/06/08 01:50:18;;;;;;;2.85;2.05;;;;;;;;;;5061810;28;20044;-80
2023/06/08 01:52:43;;;;;;;3.00;2.13;;;;;;;;;;5066887;28;20033;-81
2023/06/08 01:55:19;;;;;;;2.63;1.95;;;;;;;;;;5048885;28;20044;-81
2023/06/08 01:57:44;;;;;;;2.95;2.25;;;;;;;;;;5048847;28;20082;-81
2023/06/08 02:00:10;;;;;;;2.72;1.90;;;;;;;;;;5066023;28;20538;-81
2023/06/08 02:02:36;;;;;;;3.40;2.40;;;;;;;;;;5049005;28;20056;-81
2023/06/08 02:05:01;;;;;;;3.50;2.15;;;;;;;;;;5057717;28;20032;-81
2023/06/08 02:07:26;;;;;;;2.40;2.10;;;;;;;;;;5065641;28;20039;-82
2023/06/08 02:09:52;;;;;;;3.93;2.20;;;;;;;;;;5065460;28;20033;-81
2023/06/08 02:12:17;;;;;;;3.30;2.17;;;;;;;;;;5066293;28;20805;-81
2023/06/08 02:14:42;;;;;;;3.60;2.30;;;;;;;;;;5067177;28;20303;-81
2023/06/08 02:17:08;;;;;;;2.77;1.90;;;;;;;;;;5065961;28;20033;-82
2023/06/08 02:19:34;;;;;;;3.65;1.83;;;;;;;;;;5061707;28;20033;-81
2023/06/08 02:22:00;;;;;;;2.65;1.75;;;;;;;;;;5066653;28;20819;-81
2023/06/08 02:24:25;;;;;;;3.17;1.90;;;;;;;;;;5064310;28;20052;-81
2023/06/08 02:26:52;;;;;;;3.55;2.03;;;;;;;;;;5047929;28;20025;-81
2023/06/08 02:29:17;;;;;;;2.83;2.03;;;;;;;;;;5068090;28;20028;-81
2023/06/08 02:31:42;;;;;;;3.03;2.00;;;;;;;;;;5073911;28;20371;-81
2023/06/08 02:34:07;;;;;;;3.00;2.20;;;;;;;;;;5064485;28;20553;-81
2023/06/08 02:36:33;;;;;;;2.93;2.10;;;;;;;;;;5063811;28;20380;-81
2023/06/08 02:38:58;;;;;;;3.67;1.90;;;;;;;;;;5065539;28;20507;-81
2023/06/08 02:41:24;;;;;;;3.05;1.90;;;;;;;;;;5047697;28;20620;-81
2023/06/08 02:43:49;;;;;;;3.40;1.93;;;;;;;;;;5063951;28;20106;-81
2023/06/08 02:46:14;;;;;;;3.33;1.90;;;;;;;;;;5056361;28;20039;-85
2023/06/08 02:48:39;;;;;;;2.83;1.90;;;;;;;;;;5058101;28;20123;-81
2023/06/08 02:51:05;;;;;;;3.50;1.80;;;;;;;;;;5058001;28;20287;-81
2023/06/08 02:53:30;;;;;;;3.50;2.10;;;;;;;;;;5051452;28;20291;-79
2023/06/08 02:55:56;;;;;;;3.22;1.90;;;;;;;;;;5056802;28;20036;-78
2023/06/08 02:58:23;;;;;;;3.80;2.17;;;;;;;;;;5053619;28;20035;-79
2023/06/08 03:00:53;;;;;;;2.53;1.75;;;;;;;;;;5068585;28;20364;-79
2023/06/08 03:03:23;;;;;;;2.97;1.80;;;;;;;;;;5052536;28;20044;-79
2023/06/08 03:05:58;;;;;;;2.63;1.65;;;;;;;;;;5053592;28;20809;-78
2023/06/08 03:08:23;;;;;;;3.03;1.70;;;;;;;;;;5052922;28;20530;-79
2023/06/08 03:10:49;;;;;;;2.67;1.90;;;;;;;;;;5052505;28;20029;-78
2023/06/08 03:13:14;;;;;;;2.53;1.83;;;;;;;;;;5053085;28;20035;-78
2023/06/08 03:15:41;;;;;;;2.87;2.00;;;;;;;;;;5058197;28;20041;-78
2023/06/08 03:18:06;;;;;;;3.10;1.50;;;;;;;;;;5053579;28;20479;-79
2023/06/08 03:20:31;;;;;;;3.03;1.70;;;;;;;;;;5052194;28;20135;-79
2023/06/08 03:22:57;;;;;;;2.30;1.53;;;;;;;;;;5051023;28;20307;-78
2023/06/08 03:25:22;;;;;;;2.70;1.75;;;;;;;;;;5056265;28;20282;-79
2023/06/08 03:27:47;;;;;;;4.30;1.75;;;;;;;;;;5051375;28;20037;-86
2023/06/08 03:30:13;;;;;;;2.90;1.77;;;;;;;;;;5055356;28;20513;-82
2023/06/08 03:32:38;;;;;;;3.67;1.97;;;;;;;;;;5057997;28;20282;-87
2023/06/08 03:35:03;;;;;;;2.63;1.58;;;;;;;;;;5055320;28;20278;-87
2023/06/08 03:37:29;;;;;;;4.13;1.95;;;;;;;;;;5056143;28;20032;-86
2023/06/08 03:39:54;;;;;;;3.50;2.00;;;;;;;;;;5052507;28;20504;-86
2023/06/08 03:42:19;;;;;;;2.63;1.80;;;;;;;;;;5057400;28;20298;-81
2023/06/08 03:44:44;;;;;;;2.58;1.92;;;;;;;;;;5053136;28;20047;-82
2023/06/08 03:47:12;;;;;;;4.93;1.80;;;;;;;;;;5052169;28;20040;-84
2023/06/08 03:49:37;;;;;;;3.28;2.00;;;;;;;;;;5042270;28;20101;-82
2023/06/08 03:52:04;;;;;;;4.65;1.80;;;;;;;;;;5055135;28;20038;-79
2023/06/08 03:54:29;;;;;;;3.00;2.05;;;;;;;;;;5056661;28;20149;-82
2023/06/08 03:56:55;;;;;;;2.70;1.50;;;;;;;;;;5051980;28;20140;-81
2023/06/08 03:59:20;;;;;;;3.28;1.80;;;;;;;;;;5056207;28;20477;-80
2023/06/08 04:01:46;;;;;;;2.00;1.33;;;;;;;;;;5059400;28;20041;-83
2023/06/08 04:04:11;;;;;;;3.25;1.95;;;;;;;;;;5058357;28;21103;-82
2023/06/08 04:06:38;;;;;;;4.20;2.07;;;;;;;;;;5057071;28;20032;-83
2023/06/08 04:09:03;;;;;;;4.10;2.00;;;;;;;;;;5055533;28;20098;-80
2023/06/08 04:11:28;;;;;;;4.73;2.00;;;;;;;;;;5055299;28;21035;-82
2023/06/08 04:13:54;;;;;;;3.70;1.85;;;;;;;;;;5061550;28;20336;-81
2023/06/08 04:16:19;;;;;;;4.25;1.95;;;;;;;;;;5059059;28;20048;-79
2023/06/08 04:18:44;;;;;;;3.45;2.10;;;;;;;;;;5056295;28;20037;-79
2023/06/08 04:21:10;;;;;;;3.72;2.03;;;;;;;;;;5054441;28;20033;-78
2023/06/08 04:23:35;;;;;;;4.60;1.60;;;;;;;;;;5057407;28;20053;-78
2023/06/08 04:26:04;;;;;;;2.95;1.92;;;;;;;;;;5057719;28;20287;-80
2023/06/08 04:28:30;;;;;;;3.95;2.00;;;;;;;;;;5064352;28;20044;-82
2023/06/08 04:30:58;;;;;;;4.82;2.05;;;;;;;;;;5067221;28;20086;-83
2023/06/08 04:33:24;;;;;;;3.72;2.08;;;;;;;;;;5066609;28;20032;-85
2023/06/08 04:35:49;;;;;;;4.35;1.70;;;;;;;;;;5059438;28;20048;-84
2023/06/08 04:38:14;;;;;;;4.73;2.10;;;;;;;;;;5060974;28;20047;-81
2023/06/08 04:41:01;;;;;;;3.85;2.17;;;;;;;;;;5056857;28;20048;-81
2023/06/08 04:43:30;;;;;;;5.18;2.03;;;;;;;;;;5058401;28;20040;-81
2023/06/08 04:45:59;;;;;;;;;;;;;;;;;;5065210;28;20016;-84
2023/06/08 04:48:27;;;;;;;2.63;1.73;;;;;;;;;;5058590;28;19970;-80
2023/06/08 04:50:53;;;;;;;3.38;1.67;;;;;;;;;;5076482;28;20029;-83
2023/06/08 04:53:21;;;;;;;3.17;1.80;;;;;;;;;;5074189;28;20106;-82
2023/06/08 04:55:46;;;;;;;4.10;1.77;;;;;;;;;;5059832;28;20048;-82
2023/06/08 04:58:12;;;;;;;3.00;1.80;;;;;;;;;;5059040;28;20552;-82
2023/06/08 05:00:38;;;;;;;3.55;1.95;;;;;;;;;;5062301;28;20401;-83
2023/06/08 05:03:03;;;;;;;3.53;2.28;;;;;;;;;;5059205;28;20124;-85
2023/06/08 05:05:28;;;;;;;3.60;2.10;;;;;;;;;;5052371;28;20292;-81
2023/06/08 05:07:53;;;;;;;3.37;1.73;;;;;;;;;;5058687;28;20307;-78
2023/06/08 05:10:19;;;;;;;4.07;2.50;;;;;;;;;;5067371;28;20291;-82
2023/06/08 05:12:44;;;;;;;3.90;1.90;;;;;;;;;;5091095;28;20040;-81
2023/06/08 05:15:10;;;;;;;3.60;1.97;;;;;;;;;;5079963;28;20064;-84
2023/06/08 05:17:35;;;;;;;4.47;2.10;;;;;;;;;;5078176;28;20302;-80
2023/06/08 05:20:00;;;;;;;3.63;2.10;;;;;;;;;;5080185;28;20325;-82
2023/06/08 05:22:26;;;;;;;3.97;2.03;;;;;;;;;;5087302;28;20350;-83
2023/06/08 05:24:51;;;;;;;2.92;2.00;;;;;;;;;;5074923;28;20521;-79
2023/06/08 05:27:16;;;;;;;3.05;2.20;;;;;;;;;;5076561;28;20036;-78
2023/06/08 05:29:41;;;;;;;4.05;2.40;;;;;;;;;;5082233;28;20029;-83
2023/06/08 05:32:07;;;;;;;4.70;2.30;;;;;;;;;;5079848;28;20032;-88
2023/06/08 05:34:32;;;;;;;4.65;2.10;;;;;;;;;;5064271;28;20287;-87
2023/06/08 05:36:57;;;;;;;4.60;2.38;;;;;;;;;;5067364;28;20066;-85
2023/06/08 05:39:23;;;;;;;5.10;2.33;;;;;;;;;;5077965;28;20529;-88
2023/06/08 05:41:48;;;;;;;4.00;2.30;;;;;;;;;;5068707;28;20342;-91
2023/06/08 05:44:13;;;;;;;3.23;2.07;;;;;;;;;;5077115;28;20040;-81
2023/06/08 05:46:38;;;;;;;3.50;2.22;;;;;;;;;;5064027;28;20057;-83
2023/06/08 05:49:04;;;;;;;4.07;2.20;;;;;;;;;;5077426;28;20029;-82
2023/06/08 05:51:29;;;;;;;3.35;2.15;;;;;;;;;;5059989;28;20062;-85
2023/06/08 05:53:55;;;;;;;3.78;2.40;;;;;;;;;;5064789;28;20477;-88
2023/06/08 05:56:21;;;;;;;4.05;2.10;;;;;;;;;;5061704;28;20037;-89
2023/06/08 05:58:46;;;;;;;3.65;2.28;;;;;;;;;;5068563;28;20043;-77
2023/06/08 06:01:11;;;;;;;6.13;2.60;;;;;;;;;;5069276;28;20040;-77
2023/06/08 06:03:36;;;;;;;8.20;2.73;;;;;;;;;;5072424;28;20052;-85
2023/06/08 06:06:02;;;;;;;4.47;2.40;;;;;;;;;;5068939;28;20298;-83
2023/06/08 06:08:27;;;;;;;5.05;2.65;;;;;;;;;;5076064;28;20279;-83
2023/06/08 06:10:52;;;;;;;5.40;2.37;;;;;;;;;;5075245;28;20046;-84
2023/06/08 06:13:18;;;;;;;5.00;2.42;;;;;;;;;;5076017;28;20138;-78
2023/06/08 06:15:43;;;;;;;5.80;2.72;;;;;;;;;;5076126;28;20028;-81
2023/06/08 06:18:08;;;;;;;5.93;2.58;;;;;;;;;;5058218;28;20037;-82
2023/06/08 06:20:33;;;;;;;7.57;2.80;;;;;;;;;;5063495;28;20041;-81
2023/06/08 06:22:59;;;;;;;4.93;2.33;;;;;;;;;;5079362;28;20045;-82
2023/06/08 06:25:24;;;;;;;4.38;2.40;;;;;;;;;;5073199;28;20081;-88
2023/06/08 06:27:49;;;;;;;4.13;2.43;;;;;;;;;;5053837;28;20040;-89
2023/06/08 06:30:15;;;;;;;4.60;2.10;;;;;;;;;;5060851;28;20283;-91
2023/06/08 06:32:40;;;;;;;6.72;2.33;;;;;;;;;;5064727;28;20120;-90
2023/06/08 06:35:06;;;;;;;6.30;2.50;;;;;;;;;;5065145;28;20720;-90
2023/06/08 06:37:34;;;;;;;7.57;2.58;;;;;;;;;;5064395;28;20028;-92
2023/06/08 06:40:06;;;;;;;5.65;2.05;;;;;;;;;;5069045;28;20037;-91
2023/06/08 06:42:31;;;;;;;4.50;2.20;;;;;;;;;;5088174;28;20032;-92
2023/06/08 06:44:58;;;;;;;3.40;2.35;;;;;;;;;;5074540;28;20033;-91
2023/06/08 06:47:23;;;;;;;5.78;2.55;;;;;;;;;;5078512;28;20041;-91
2023/06/08 06:49:48;;;;;;;4.20;2.20;;;;;;;;;;5056794;28;20939;-91
2023/06/08 06:52:14;;;;;;;6.53;2.33;;;;;;;;;;5069192;28;20482;-91
2023/06/08 06:54:39;;;;;;;3.50;2.40;;;;;;;;;;5065848;28;20059;-91
2023/06/08 06:57:04;;;;;;;5.37;2.40;;;;;;;;;;5046546;28;20114;-91
2023/06/08 06:59:30;;;;;;;5.82;2.42;;;;;;;;;;5060075;28;20377;-90
2023/06/08 07:01:55;;;;;;;5.47;2.40;;;;;;;;;;5070014;28;20048;-90
2023/06/08 07:04:22;;;;;;;5.40;2.30;;;;;;;;;;5062489;28;22142;-92
2023/06/08 07:06:47;;;;;;;4.70;2.42;;;;;;;;;;5062816;28;20308;-91
2023/06/08 07:09:13;;;;;;;6.85;2.53;;;;;;;;;;5064083;28;20484;-90
2023/06/08 07:11:38;;;;;;;5.38;2.03;;;;;;;;;;5061334;28;20048;-90
2023/06/08 07:14:03;;;;;;;7.10;2.20;;;;;;;;;;5061625;28;20040;-90
2023/06/08 07:16:29;;;;;;;3.70;2.10;;;;;;;;;;5063619;28;20048;-90
2023/06/08 07:18:54;;;;;;;5.63;2.23;;;;;;;;;;5064943;28;20037;-90
2023/06/08 07:21:21;;;;;;;5.75;2.30;;;;;;;;;;5063436;28;20330;-91
2023/06/08 07:23:48;;;;;;;6.35;2.25;;;;;;;;;;5073609;28;20040;-90
2023/06/08 07:26:13;;;;;;;5.82;2.80;;;;;;;;;;5064201;28;20471;-89
2023/06/08 07:28:38;;;;;;;6.47;2.37;;;;;;;;;;5065406;28;20120;-91
2023/06/08 07:31:03;;;;;;;5.57;2.53;;;;;;;;;;5063192;28;20067;-90
2023/06/08 07:33:28;;;;;;;6.57;2.40;;;;;;;;;;5063092;28;21152;-90
2023/06/08 07:35:54;;;;;;;5.70;3.10;;;;;;;;;;5059580;28;20530;-90
2023/06/08 07:38:19;;;;;;;5.65;2.92;;;;;;;;;;5064581;28;20508;-91
2023/06/08 07:40:44;;;;;;;4.75;2.63;;;;;;;;;;5062500;28;20045;-91
2023/06/08 07:43:10;;;;;;;6.05;2.65;;;;;;;;;;5062653;28;20037;-90
2023/06/08 07:45:35;;;;;;;6.20;2.70;;;;;;;;;;5045400;28;20064;-89
2023/06/08 07:48:00;;;;;;;6.07;2.90;;;;;;;;;;5060330;28;20048;-90
2023/06/08 07:50:26;;;;;;;5.47;2.50;;;;;;;;;;5074070;28;20032;-90
2023/06/08 07:52:51;;;;;;;5.55;2.70;;;;;;;;;;5064666;28;20318;-90
2023/06/08 07:55:16;;;;;;;5.45;2.45;;;;;;;;;;5067898;28;20119;-88
2023/06/08 07:57:44;;;;;;;5.72;2.88;;;;;;;;;;5063204;28;20037;-90
2023/06/08 08:00:09;;;;;;;7.30;2.67;;;;;;;;;;5061145;28;20043;-90
2023/06/08 08:02:34;;;;;;;4.93;2.55;;;;;;;;;;5052019;28;20049;-88
2023/06/08 08:05:00;;;;;;;5.37;2.67;;;;;;;;;;5062676;28;20591;-90
2023/06/08 08:07:25;;;;;;;5.00;2.50;;;;;;;;;;5062729;28;20389;-91
2023/06/08 08:09:50;;;;;;;5.35;3.00;;;;;;;;;;5060764;28;20310;-88
2023/06/08 08:12:15;;;;;;;5.63;2.85;;;;;;;;;;5065062;28;20111;-92
2023/06/08 08:14:41;;;;;;;6.43;2.80;;;;;;;;;;5064921;28;20032;-91
2023/06/08 08:17:06;;;;;;;6.50;3.38;;;;;;;;;;5062339;28;20535;-91
2023/06/08 08:19:31;;;;;;;6.40;2.67;;;;;;;;;;5064720;28;20037;-90
2023/06/08 08:21:56;;;;;;;8.20;3.00;;;;;;;;;;5062577;28;20025;-90
2023/06/08 08:24:22;;;;;;;4.77;2.80;;;;;;;;;;5060366;28;20131;-90
2023/06/08 08:26:47;;;;;;;5.53;2.70;;;;;;;;;;5062424;28;20063;-89
2023/06/08 08:29:12;;;;;;;5.97;3.20;;;;;;;;;;5058826;28;20044;-90
2023/06/08 08:31:37;;;;;;;5.88;2.65;;;;;;;;;;5060504;28;20283;-90
2023/06/08 08:34:03;;;;;;;4.97;2.63;;;;;;;;;;5061307;28;20040;-89
2023/06/08 08:36:28;;;;;;;5.60;3.08;;;;;;;;;;5062687;28;20284;-89
2023/06/08 08:38:53;;;;;;;5.72;2.80;;;;;;;;;;5063506;28;20032;-92
2023/06/08 08:41:22;;;;;;;5.40;3.20;;;;;;;;;;5058736;28;20040;-92
2023/06/08 08:43:48;;;;;;;6.80;2.60;;;;;;;;;;5065323;28;20036;-92
2023/06/08 08:46:14;;;;;;;5.85;3.00;;;;;;;;;;5066879;28;20032;-92
2023/06/08 08:48:43;;;;;;;4.10;2.70;;;;;;;;;;5064999;28;20037;-91
2023/06/08 08:51:09;;;;;;;6.28;2.95;;;;;;;;;;5062903;28;20029;-91
2023/06/08 08:53:35;;;;;;;4.78;2.42;;;;;;;;;;5066480;28;20454;-90
2023/06/08 08:56:03;;;;;;;4.60;3.22;;;;;;;;;;5062369;28;20045;-91
2023/06/08 08:58:29;;;;;;;4.60;2.65;;;;;;;;;;5067370;28;20033;-90
2023/06/08 09:00:54;;;;;;;3.67;2.80;;;;;;;;;;5069198;28;20103;-91
2023/06/08 09:03:20;;;;;;;5.53;2.90;;;;;;;;;;5050935;28;20879;-91
2023/06/08 09:05:45;;;;;;;3.75;2.70;;;;;;;;;;5071339;28;20296;-91
2023/06/08 09:08:10;;;;;;;6.05;2.75;;;;;;;;;;5070059;28;20033;-90
2023/06/08 09:10:36;;;;;;;4.47;2.60;;;;;;;;;;5052445;28;20032;-92
2023/06/08 09:13:01;;;;;;;4.93;2.70;;;;;;;;;;5068944;28;20032;-85
2023/06/08 09:15:27;;;;;;;4.45;2.58;;;;;;;;;;5070484;28;20101;-91
2023/06/08 09:17:53;;;;;;;5.18;2.70;;;;;;;;;;5068768;28;20043;-90
2023/06/08 09:20:26;;;;;;;3.85;2.90;;;;;;;;;;5069446;28;20129;-91
2023/06/08 09:22:52;;;;;;;3.97;2.92;;;;;;;;;;5052523;28;20051;-90
2023/06/08 09:25:17;;;;;;;4.70;2.58;;;;;;;;;;5070385;28;20037;-90
2023/06/08 09:27:43;;;;;;;4.45;2.85;;;;;;;;;;5067739;28;20039;-90
2023/06/08 09:30:20;;;;;;;3.90;2.85;;;;;;;;;;5069537;28;20047;-90
2023/06/08 09:32:46;;;;;;;6.72;2.70;;;;;;;;;;5067916;28;20029;-90
2023/06/08 09:35:12;;;;;;;4.82;2.50;;;;;;;;;;5068017;28;20033;-91
2023/06/08 09:37:39;;;;;;;5.55;2.72;;;;;;;;;;5068700;28;20033;-91
2023/06/08 09:40:07;;;;;;;4.07;2.47;;;;;;;;;;5067549;28;20025;-91
2023/06/08 09:42:43;;;;;;;4.18;2.55;;;;;;;;;;5063535;28;20056;-92
2023/06/08 09:45:09;;;;;;;5.70;2.80;;;;;;;;;;5068159;28;20045;-93
2023/06/08 09:47:34;;;;;;;3.78;2.72;;;;;;;;;;5068533;28;20561;-91
2023/06/08 09:49:59;;;;;;;4.75;2.60;;;;;;;;;;5068324;28;20045;-92
2023/06/08 09:52:25;;;;;;;6.53;2.87;;;;;;;;;;5051490;28;20129;-92
2023/06/08 09:54:50;;;;;;;5.63;2.80;;;;;;;;;;5068499;28;20044;-91
2023/06/08 09:57:16;;;;;;;5.53;2.85;;;;;;;;;;5068406;28;20081;-92
2023/06/08 09:59:52;;;;;;;5.65;2.97;;;;;;;;;;5056137;28;20033;-90
2023/06/08 10:02:28;;;;;;;7.28;2.90;;;;;;;;;;5068103;28;20048;-91
2023/06/08 10:04:53;;;;;;;6.65;2.80;;;;;;;;;;5057953;28;20035;-89
2023/06/08 10:07:19;;;;;;;3.88;2.72;;;;;;;;;;5069819;28;20352;-94
2023/06/08 10:09:45;;;;;;;7.50;2.65;;;;;;;;;;5069807;28;20368;-93
2023/06/08 10:12:10;;;;;;;5.43;2.55;;;;;;;;;;5068026;28;20081;-92
2023/06/08 10:14:35;;;;;;;4.53;2.60;;;;;;;;;;5051546;28;20209;-90
2023/06/08 10:17:00;;;;;;;4.82;2.83;;;;;;;;;;5067174;28;20760;-90
2023/06/08 10:19:26;;;;;;;6.57;2.43;;;;;;;;;;5053648;28;20067;-92
2023/06/08 10:21:51;;;;;;;4.73;2.40;;;;;;;;;;5067854;28;22996;-92
2023/06/08 10:24:20;;;;;;;3.60;2.70;;;;;;;;;;5051266;28;20804;-84
2023/06/08 10:26:48;;;;;;;3.72;2.50;;;;;;;;;;5074645;28;20089;-91
2023/06/08 10:29:13;;;;;;;5.15;3.03;;;;;;;;;;5076206;28;20092;-91
2023/06/08 10:31:42;;;;;;;6.97;2.70;;;;;;;;;;5072479;28;20052;-88
2023/06/08 10:34:11;;;;;;;4.35;2.30;;;;;;;;;;5061543;28;20052;-90
2023/06/08 10:36:39;;;;;;;4.18;2.30;;;;;;;;;;5072448;28;20031;-91
2023/06/08 10:39:06;;;;;;;5.35;2.22;;;;;;;;;;5070064;28;20107;-85
2023/06/08 10:41:41;;;;;;;4.13;2.50;;;;;;;;;;5070608;28;20039;-88
2023/06/08 10:44:07;;;;;;;3.90;2.30;;;;;;;;;;5090406;28;20044;-88
2023/06/08 10:46:41;;;;;;;4.25;2.28;;;;;;;;;;5070604;28;20074;-86
2023/06/08 10:49:07;;;;;;;2.78;2.17;;;;;;;;;;5056024;28;20036;-85
2023/06/08 10:51:43;;;;;;;5.33;2.50;;;;;;;;;;5057944;28;20020;-91
2023/06/08 10:54:09;;;;;;;3.67;2.45;;;;;;;;;;5074720;28;20294;-92
2023/06/08 10:56:41;;;;;;;4.15;2.55;;;;;;;;;;5075106;28;20523;-92
2023/06/08 10:59:07;;;;;;;3.58;2.60;;;;;;;;;;5076573;28;20094;-92
2023/06/08 11:01:32;;;;;;;4.23;2.57;;;;;;;;;;5054857;28;20595;-93
2023/06/08 11:03:58;;;;;;;3.53;2.40;;;;;;;;;;5070116;28;20041;-94
2023/06/08 11:06:23;;;;;;;5.88;2.25;;;;;;;;;;5071799;28;20040;-92
2023/06/08 11:08:49;;;;;;;5.60;2.53;;;;;;;;;;5075442;28;20502;-96
2023/06/08 11:11:14;;;;;;;2.95;2.30;;;;;;;;;;5070283;28;20349;-93
2023/06/08 11:13:39;;;;;;;4.18;2.55;;;;;;;;;;5075675;28;20060;-93
2023/06/08 11:16:04;;;;;;;3.40;2.40;;;;;;;;;;5071797;28;20059;-92
2023/06/08 11:18:30;;;;;;;3.40;2.47;;;;;;;;;;5069252;28;20033;-92
2023/06/08 11:20:58;;;;;;;5.00;2.22;;;;;;;;;;5055200;28;20123;-95
2023/06/08 11:23:23;;;;;;;5.75;2.30;;;;;;;;;;5078485;28;20058;-94
2023/06/08 11:25:49;;;;;;;3.20;2.10;;;;;;;;;;5078150;28;20044;-94
2023/06/08 11:28:14;;;;;;;3.42;2.00;;;;;;;;;;5079656;28;20313;-93
2023/06/08 11:30:39;;;;;;;3.28;2.10;;;;;;;;;;5069384;28;20095;-93
2023/06/08 11:33:06;;;;;;;3.05;2.05;;;;;;;;;;5062170;28;20355;-92
2023/06/08 11:35:32;;;;;;;4.75;2.45;;;;;;;;;;5061319;28;20025;-93
2023/06/08 11:38:00;;;;;;;3.45;2.20;;;;;;;;;;5079785;28;20035;-92
2023/06/08 11:40:25;;;;;;;3.00;2.15;;;;;;;;;;5062950;28;20035;-94
2023/06/08 11:42:51;;;;;;;3.13;2.13;;;;;;;;;;5059756;28;20041;-93
2023/06/08 11:45:16;;;;;;;3.42;2.20;;;;;;;;;;5061202;28;20256;-92
2023/06/08 11:47:42;;;;;;;3.33;2.20;;;;;;;;;;5083300;28;20094;-94
2023/06/08 11:50:08;;;;;;;4.50;2.30;;;;;;;;;;5082922;28;20050;-93
2023/06/08 11:52:34;;;;;;;3.00;2.00;;;;;;;;;;5094020;28;20102;-92
2023/06/08 11:55:01;;;;;;;4.47;2.55;;;;;;;;;;5084420;28;20037;-90
2023/06/08 11:57:45;;;;;;;3.25;2.20;;;;;;;;;;5089311;28;20029;-92
2023/06/08 12:00:16;;;;;;;3.50;2.20;;;;;;;;;;5101633;28;20032;-93
2023/06/08 12:02:42;;;;;;;4.25;2.00;;;;;;;;;;5095912;28;20118;-92
2023/06/08 12:05:14;;;;;;;4.80;2.27;;;;;;;;;;5064250;28;20045;-93
2023/06/08 12:07:39;;;;;;;3.63;2.17;;;;;;;;;;5065899;28;20362;-92
2023/06/08 12:10:05;;;;;;;2.93;2.00;;;;;;;;;;5079295;28;20044;-93
2023/06/08 12:12:30;;;;;;;3.58;2.20;;;;;;;;;;5084591;28;20274;-91
2023/06/08 12:14:55;;;;;;;2.87;2.23;;;;;;;;;;5082736;28;20109;-91
2023/06/08 12:17:27;;;;;;;2.78;2.05;;;;;;;;;;5080122;28;20073;-92
2023/06/08 12:19:53;;;;;;;3.35;1.90;;;;;;;;;;5076649;28;20028;-91
2023/06/08 12:22:18;;;;;;;2.92;1.98;;;;;;;;;;5071594;28;20101;-92
2023/06/08 12:24:43;;;;;;;3.85;1.95;;;;;;;;;;5060926;28;20044;-90
2023/06/08 12:27:09;;;;;;;5.37;2.10;;;;;;;;;;5061427;28;20070;-92
2023/06/08 12:29:34;;;;;;;3.90;2.63;;;;;;;;;;5085242;28;20028;-92
2023/06/08 12:32:00;;;;;;;3.97;2.30;;;;;;;;;;5067283;28;20059;-92
2023/06/08 12:34:26;;;;;;;3.45;2.33;;;;;;;;;;5073611;28;20044;-92
2023/06/08 12:36:51;;;;;;;4.28;2.45;;;;;;;;;;5074443;28;20029;-92
2023/06/08 12:39:16;;;;;;;3.03;2.37;;;;;;;;;;5071121;28;20086;-91
2023/06/08 12:41:41;;;;;;;3.50;2.60;;;;;;;;;;5067165;28;20033;-92
2023/06/08 12:44:07;;;;;;;3.83;2.30;;;;;;;;;;5066598;28;20123;-92
2023/06/08 12:46:32;;;;;;;2.78;2.40;;;;;;;;;;5072076;28;20115;-86
2023/06/08 12:48:58;;;;;;;4.60;2.43;;;;;;;;;;5069825;28;20005;-85
2023/06/08 12:51:23;;;;;;;3.75;2.70;;;;;;;;;;5055668;28;20012;-91
2023/06/08 12:53:48;;;;;;;6.10;2.60;;;;;;;;;;5057912;28;20139;-90
2023/06/08 12:56:14;;;;;;;3.23;2.20;;;;;;;;;;5074568;28;20020;-93
2023/06/08 12:58:39;;;;;;;3.72;2.30;;;;;;;;;;5056151;28;20281;-93
2023/06/08 13:01:04;;;;;;;4.53;2.50;;;;;;;;;;5073428;28;20028;-91
2023/06/08 13:03:30;;;;;;;3.13;2.58;;;;;;;;;;5072681;28;20053;-92
2023/06/08 13:05:55;;;;;;;4.28;2.25;;;;;;;;;;5048404;28;20020;-91
2023/06/08 13:08:20;;;;;;;3.17;2.40;;;;;;;;;;5073234;28;20028;-92
2023/06/08 13:10:45;;;;;;;3.40;2.27;;;;;;;;;;5071545;28;20254;-92
2023/06/08 13:13:11;;;;;;;3.33;2.13;;;;;;;;;;5071302;28;20024;-93
2023/06/08 13:15:36;;;;;;;3.23;2.60;;;;;;;;;;5071838;28;20017;-90
2023/06/08 13:18:03;;;;;;;4.03;2.78;;;;;;;;;;5071531;28;20463;-92
2023/06/08 13:20:28;;;;;;;4.88;2.90;;;;;;;;;;5070591;28;20452;-91
2023/06/08 13:22:53;;;;;;;3.45;2.50;;;;;;;;;;5078621;28;20047;-90
2023/06/08 13:25:19;;;;;;;4.13;2.50;;;;;;;;;;5075235;28;20027;-90
2023/06/08 13:27:44;;;;;;;3.30;2.50;;;;;;;;;;5090442;28;20369;-89
2023/06/08 13:30:10;;;;;;;5.75;2.50;;;;;;;;;;5090379;28;20270;-89
2023/06/08 13:32:35;;;;;;;5.07;2.35;;;;;;;;;;5097507;28;20032;-91
2023/06/08 13:35:00;;;;;;;4.53;2.23;;;;;;;;;;5074014;28;20023;-92
2023/06/08 13:37:26;;;;;;;4.50;2.50;;;;;;;;;;5100972;28;20283;-91
2023/06/08 13:39:51;;;;;;;3.28;1.98;;;;;;;;;;5097932;28;20009;-92
2023/06/08 13:42:16;;;;;;;4.03;2.20;;;;;;;;;;5070915;28;20025;-90
2023/06/08 13:44:46;;;;;;;5.13;2.47;;;;;;;;;;5105567;28;20302;-90
2023/06/08 13:47:12;;;;;;;4.00;2.38;;;;;;;;;;5089370;28;20258;-91
2023/06/08 13:49:38;;;;;;;3.78;2.10;;;;;;;;;;5093626;28;20080;-90
2023/06/08 13:52:03;;;;;;;3.45;2.30;;;;;;;;;;5093295;28;20095;-89
2023/06/08 13:54:29;;;;;;;3.35;2.40;;;;;;;;;;5093742;28;20020;-90
2023/06/08 13:56:54;;;;;;;4.85;2.55;;;;;;;;;;5066086;28;20352;-89
2023/06/08 13:59:19;;;;;;;3.72;2.50;;;;;;;;;;5052796;28;20025;-90
2023/06/08 14:01:45;;;;;;;3.77;2.67;;;;;;;;;;5066100;28;20044;-90
2023/06/08 14:04:10;;;;;;;3.67;2.37;;;;;;;;;;5054053;28;20292;-90
2023/06/08 14:06:35;;;;;;;4.18;2.65;;;;;;;;;;5074709;28;20643;-90
2023/06/08 14:09:01;;;;;;;3.25;2.30;;;;;;;;;;5080333;28;20036;-91
2023/06/08 14:11:27;;;;;;;3.42;2.47;;;;;;;;;;5058375;28;20046;-89
2023/06/08 14:13:52;;;;;;;3.85;2.58;;;;;;;;;;5096341;28;20092;-90
2023/06/08 14:16:17;;;;;;;5.00;2.30;;;;;;;;;;5074303;28;20032;-91
2023/06/08 14:18:42;;;;;;;3.47;2.23;;;;;;;;;;5071786;28;20024;-89
2023/06/08 14:21:08;;;;;;;4.57;2.27;;;;;;;;;;5063678;28;20290;-89
2023/06/08 14:23:33;;;;;;;3.75;2.42;;;;;;;;;;5081332;28;20068;-83
2023/06/08 14:25:59;;;;;;;4.75;2.40;;;;;;;;;;5074454;28;20028;-85
2023/06/08 14:28:24;;;;;;;4.65;2.67;;;;;;;;;;5072415;28;20040;-92
2023/06/08 14:30:49;;;;;;;5.47;2.90;;;;;;;;;;5070330;28;20043;-92
2023/06/08 14:33:15;;;;;;;4.05;2.33;;;;;;;;;;5077841;28;20029;-91
2023/06/08 14:35:43;;;;;;;3.43;2.47;;;;;;;;;;5076299;28;20093;-93
2023/06/08 14:38:11;;;;;;;3.97;2.50;;;;;;;;;;5067788;28;20115;-93